Terminal Aerodrome Forecast
Issued by NWS

Home | Current Version | Previous Version | Text Only | Print | Product List | Glossary On
Versions: 1 2 3 4 5 6 7 8 9 10 11 12
117
FTPA31 PHFO 131720
TAFSTU
TAF
NSTU 131720Z 1318/1418 11009KT P6SM SCT018 SCT040 SCT100
     FM140500 VRB05KT P6SM SCT018 SCT040 BKN100
      AMD NOT SKED=

USA.gov is the U.S. government's official web portal to all federal, state and local government web resources and services.